Dutch
Home     News     Corporate     Events & Tours     Flight ops     Crew centre      
My transavia virtual    Join us    Last logs    Who is flying    Software    Training    VRTS     
 

view flightdata
view flightplan
view OFP
view flightlog



flightdata:
pilot: Youp Oosterwegel
flight: TRA6881
from: EHAM (Amsterdam Schiphol)
to: GMAD (Agadir)
date: 26-12-2019
departure: 13:40z
arrival: 17:38z
duration: 3:55
aircraft: B738 (PHHSA)
distance: 1485 NM
touchdown: -115 ft/m @ 142 KIAS



flightplan:
-(FPL-TRA6881-IS
-B738/M-SDEEFGHIJRWXY/LB1
-EHAM1337
-N0434F350 WOODY N872 MEDIL UN872 KOVIN UM728 RESMI UN857 VASUM UN10 CJN UL27 NASOS UN869 PELAX UB11 MAK UG850 OLOMA
-GMAD0340 GMAG
-EET/EBUR0012 LFFF0021 LECM0129 GMMM0241 PBN/B1D1O1 DOF/191226 REG/PHHSA SEL/JQDH CODE/4841A5 OPR/TRA RVR/200 RMK/TCAS)



operational flightplan (OFP):
DISPATCH BRIEFING (TEL:
--------- --------- --------- --------- --------- --------- ---------  
PREDEPARTURE ATC CLEARANCE:
.
.
--------- --------- --------- --------- --------- --------- ---------  
OFP  1    26 DEC 19/13:22
                                    OBS  N/A

TRA6881    C/S TRA6881  EHAM/AMS   GMAD/AGA         CRZ SYS      CI 7
26 DEC 19  PH-HSA       1605/1605  1955/2000        GND DIST     1518
           TAB:.....    CTOT:....  STA  1955        AIR DIST     1518
                                                    AVG W/C         0
MAXIMUM    ZFW  62731  LAW  66360  TOW  78975       AVG ISA       M03
ESTIMATED  ZFW  46707  LAW  49207  TOW  57085       F-F FACTOR    2.4
ACTUAL     ZFW  .....  LAW  .....  TOW  .....
--------- --------- --------- --------- --------- --------- ---------
TRIP        7878   0340           .....  .....
CONT         394   0013           .....  .....
ALTN         829   0020  GMAG     .....  .....  ....
FINAL        907   0030           .....  .....
ADDNL        370   0012           .....  .....
TANKERING                  
PLN TOF    10008   0443
DIFF        ....   ....
PLN TOF     ....   ....  (CORRECTED)   
EXTRA          0   ....                  
TOF        10008   ....                 
TAXI         200   ....                  
BLOCK      10578   ....        
--------- --------- --------- --------- --------- --------- ---------
REASON EXTRA FUEL      MATRIX FUEL:
O ECN-ECONAMICAL     O TMP-TEMPORARILY      O ATC-AIR TRAFFIC CNTRL
O FOB-FUEL ON.BOARD  O MSC-MISCELLANEOUS    O FPC-FLIGHT PLN CORR
O WXR-WEATHER        O TEC-TECHNICAL        ACT.CI/CRZ USED: . . .   

--------- --------- --------- --------- --------- --------- ---------

ZFW ZFW 1000 : PLN TOF   XXXXX/TRIP XXXXX 00 MIN HOLD DEST: 0 EXTRA
ZFW ZFW-1000 : PLN TOF   XXXXX/TRIP XXXXX
--------- --------- --------- --------- --------- --------- ---------
COMMANDERS NAME:                           SIGNATURE:

--------- --------- --------- --------- --------- --------- ---------
FROM:  EHAM ELEV-11      TO: GMAD ELEV253        ALTN: GMAG ELEV1119
ATC C/S     : TRA68TRA6881            AVG ISA : M03
CO-ROUTE    :                        AVG TT  :   
FMC-RES FUEL: 1736                   AVG W/C :    0
CRZ ALT     : FL390                  FL310
CI          : CI 7                   FL200     360/000
                                     FL100

EHAM/27  N0434F390 DCT WOODY UN872 KOVIN UM728 RESMI/N0439F410 UN857
IBALU UR724 NISBA/N0391F330 UR724 ESS R724 AGALI DCT GMAD/27

--------- --------- --------- --------- --------- --------- ---------
.
.
--------- --------- --------- --------- --------- --------- ---------
RVSM ALT CHECK:  FL:...... LEFT: ...... STBY: ...... RIGHT: ......

--------- --------- --------- --------- --------- --------- ---------
DESTINATION ALTERNATE GMAG
--------- --------- --------- --------- --------- --------- ---------

--------- --------- --------- --------- --------- --------- ---------
--------- --------- --------- --------- --------- --------- ---------
ALTERNATE SUMMARY
--------- --------- --------- --------- --------- --------- ---------
      ALTN        DIST   LVL       WC TIME  FUEL VIA
      GMAG/23       86  FL170    0 0020   829 DCT
INFO/GMMI/34       94  FL060    0 0024   942 MOGB3D MOGBA H300 ESS
INFO/GMMX/28      138  FL260    0 0028  1139 OLOM3D OLOMA UG850
                                           LISRA LISR2A
INFO/GMMZ/30      181  FL340    0 0034  1403 KEGA3D KEGAG UG664
                                           LINVA LINV1A
--------- --------- --------- --------- --------- --------- ---------


-(FPL-TRA6881-IS
-B738/M-SDEEFGHIJRWXY/LB1
-EHAM1337
-N0434F350 WOODY N872 MEDIL UN872 KOVIN UM728 RESMI UN857 VASUM UN10 CJN UL27 NASOS UN869 PELAX UB11 MAK UG850 OLOMA
-GMAD0340 GMAG
-EET/EBUR0012 LFFF0021 LECM0129 GMMM0241 PBN/B1D1O1 DOF/191226 REG/PHHSA SEL/JQDH CODE/4841A5 OPR/TRA RVR/200 RMK/TCAS)

WEATHER BRIEFING - GENERATED 26 DEC 2019 13:22 UTC
--------------------------------------------------------------------------------

EHAM GMAD GMAG GMMI GMMX GMMZ

--------------------------------------------------------------------------------
ORIGIN: EHAM (SCHIPHOL)
--------------------------------------------------------------------------------
EHAM 261255Z 14009KT 100V160 CAVOK 06/05 Q1021 NOSIG

EHAM 261117Z 2612/2718 15008KT 9999 SCT035
      TEMPO 2620/2704 6000 -RADZ SCT008 BKN016
      BECMG 2700/2703 08010KT


--------------------------------------------------------------------------------
DESTINATION: GMAD (AGADIR)
--------------------------------------------------------------------------------
GMAD 261300Z 25005KT 210V290 CAVOK 26/M01 Q1020 NOSIG

GMAD 261100Z 2612/2718 26010KT CAVOK
      BECMG 2620/2622 07006KT


--------------------------------------------------------------------------------
ALTERNATE: GMAG (NOT FOUND)
--------------------------------------------------------------------------------

GMAG 261100Z 2612/2718 12018KT CAVOK=  GMFM 261100Z 2612/2718 09009KT CAVOK


--------------------------------------------------------------------------------
ALTERNATE: GMMI (ESSAOUIRA)
--------------------------------------------------------------------------------
GMMI 261300Z 32004KT 8000 NSC 25/05 Q1021 NOSIG

GMMI 260500Z 2606/2712 12009KT 8000 NSC=  GMMW 260500Z 2606/2712 VRB02KT CAVOK


--------------------------------------------------------------------------------
ALTERNATE: GMMX (MARRAKECH)
--------------------------------------------------------------------------------
GMMX 261300Z VRB02KT 7000 NSC 22/06 Q1022 NOSIG

GMMX 261100Z 2612/2718 12006KT 8000 NSC


--------------------------------------------------------------------------------
ALTERNATE: GMMZ (OUARZAZATE)
--------------------------------------------------------------------------------
GMMZ 261300Z VRB02KT 240V300 CAVOK 16/M07 Q1026 NOSIG

GMMZ 261100Z 2612/2718 VRB02KT CAVOK


NOTAM BRIEFING - GENERATED 26 DEC 2019 13:23 UTC
--------------------------------------------------------------------------------

EHAM GMAD GMAG GMAG GMMI GMMX GMMZ

--------------------------------------------------------------------------------
GLOBAL TRANSAVIA.COM VIRTUAL NOTAMS
--------------------------------------------------------------------------------
REF:NIL PLEASE CONTACT OPERATIONS IN CASE OF STRUCTURAL FLIGHTPLAN ERRORS ON FLIGHT-OPS@TRANSAVIA-VIRTUAL.COM
VALID:UFN

REF:NIL
PLEASE CHECK ACARS EVERY 10 MINUTES WHEN FLYING WITH SOUND OFF. AN NEW ACARS MESSAGE PRODUCE A SOUND SIGNAL UNTILL ITS READ. FLOWCONTROL DON'T RECEIVE MUCH REACTION ON OUTGOING ACARS MESSAGES ACCORDING FLIGHTSTATUS.
SOURCE: SPL/HV/OCC/
END VALID: UFN

REF:NIL
PLEASE CONTACT FLOWCONTROL IN CASE OF PROBLEMS WITH ROUTINGS
SOURCE: SPL/HV/OCC/
END VALID: UFN

REF:NIL
IN CASE OF ENGINE-OUT FLY V2 OR V2 20 MAX. UNTIL ABOVE MSA.
LEVEL-OFF AT AN ALTITUDE ROUNDED OFF TO THE FIRST 1000 FT OF THE HIGHEST MSA.
E.G: MSA EHAM; 1.7 AND 2.3 LEVEL-OFF 3000 FT. AFTER LANDING MAKE A REP TO OCC ON 131.975
SOURCE:SPL/HV/OCC
END VALID:UFN



flightlog:
Pilot : Youp Oosterwegel
Flight: TRA6881
From  : EHAM Schiphol
To    : GMAD Agadir

[FLIGHTLOG] 1.5.4
26-12-2019 13:37:23z, logging started
26-12-2019 13:40:12z, parking brake released
26-12-2019 13:43:06z, flaps set to 13%
26-12-2019 13:43:14z, flaps set to 25%
26-12-2019 13:43:18z, flaps set to 38%
26-12-2019 13:47:41z, take-off at 170 KIAS
26-12-2019 13:47:41z, pos report: 170 KIAS, 00 017 ft, heading 182, winds 150 @ 08 kts
26-12-2019 13:47:41z, flying online @ VATSIM (TRA23Y)
26-12-2019 13:47:41z, position: EHAM - Schiphol
26-12-2019 13:47:45z, retracted gear at 178 KIAS and 72 ft AGL
26-12-2019 13:48:38z, flaps set to 25%
26-12-2019 13:48:42z, flaps set to 13%
26-12-2019 13:48:55z, flaps set to 0%
26-12-2019 13:52:24z, pos report: 295 KIAS, 11 867 ft, heading 201, winds 246 @ 20 kts
26-12-2019 14:07:25z, pos report: 269 KIAS, 35 311 ft, heading 204, winds 211 @ 53 kts
26-12-2019 14:22:26z, pos report: 258 KIAS, 37 230 ft, heading 208, winds 235 @ 50 kts
26-12-2019 14:37:26z, pos report: 257 KIAS, 37 313 ft, heading 209, winds 249 @ 55 kts
26-12-2019 14:52:27z, pos report: 257 KIAS, 37 418 ft, heading 211, winds 259 @ 63 kts
26-12-2019 15:07:28z, pos report: 260 KIAS, 37 485 ft, heading 210, winds 265 @ 65 kts
26-12-2019 15:22:29z, pos report: 260 KIAS, 37 491 ft, heading 209, winds 256 @ 68 kts
26-12-2019 15:37:30z, pos report: 260 KIAS, 37 405 ft, heading 208, winds 255 @ 60 kts
26-12-2019 15:52:31z, pos report: 260 KIAS, 37 407 ft, heading 206, winds 254 @ 44 kts
26-12-2019 16:07:32z, pos report: 260 KIAS, 37 341 ft, heading 204, winds 245 @ 35 kts
26-12-2019 16:22:33z, pos report: 260 KIAS, 37 308 ft, heading 217, winds 238 @ 30 kts
26-12-2019 16:37:34z, pos report: 260 KIAS, 37 248 ft, heading 215, winds 222 @ 27 kts
26-12-2019 16:52:35z, pos report: 260 KIAS, 37 226 ft, heading 214, winds 215 @ 28 kts
26-12-2019 17:07:35z, pos report: 256 KIAS, 37 229 ft, heading 173, winds 213 @ 30 kts
26-12-2019 17:22:37z, pos report: 264 KIAS, 10 099 ft, heading 210, winds 132 @ 09 kts
26-12-2019 17:26:27z, below glideslope
26-12-2019 17:27:28z, flaps set to 13%
26-12-2019 17:27:43z, on glideslope
26-12-2019 17:28:05z, flaps set to 25%
26-12-2019 17:28:09z, flaps set to 38%
26-12-2019 17:29:27z, intercepted localizer
26-12-2019 17:29:36z, flaps set to 50%
26-12-2019 17:29:40z, lowered gear at 170 KIAS and 2274 ft AGL
26-12-2019 17:30:26z, flaps set to 75%
26-12-2019 17:30:30z, flaps set to 87%
26-12-2019 17:30:36z, flaps set to 100%
26-12-2019 17:34:33z, touchdown: -115ft/m at 142 KIAS
26-12-2019 17:34:33z, pos report: 142 KIAS, 00 258 ft, heading 270, winds 259 @ 14 kts
26-12-2019 17:34:33z, flying online @ VATSIM (TRA23Y)
26-12-2019 17:34:33z, position: GMAD - Agadir
26-12-2019 17:34:34z, deployed spoilers
26-12-2019 17:36:24z, retracted spoilers
26-12-2019 17:36:32z, flaps set to 87%
26-12-2019 17:36:36z, flaps set to 75%
26-12-2019 17:36:40z, flaps set to 62%
26-12-2019 17:36:42z, flaps set to 50%
26-12-2019 17:36:45z, flaps set to 38%
26-12-2019 17:36:50z, flaps set to 25%
26-12-2019 17:36:54z, flaps set to 13%
26-12-2019 17:37:01z, flaps set to 0%
26-12-2019 17:37:37z, pos report: 000 KIAS, 00 257 ft, heading 090, winds 259 @ 14 kts
26-12-2019 17:38:56z, parking brake set
26-12-2019 17:39:13z, logging ended

©2009-2020, transavia virtual. All rights reserved. This website is only meant for simulation purposes.
This website is not owned by transavia, nor is transavia responsible for the content of this website.